sensor_id;sensor_type;location;lat;lon;timestamp;pressure;altitude;pressure_sealevel;temperature;humidity
12360;BME280;6244;51.460;7.090;2023-03-13T00:04:07;99501.03;;;9.92;67.22
12360;BME280;6244;51.460;7.090;2023-03-13T00:09:06;99488.25;;;10.00;67.38
12360;BME280;6244;51.460;7.090;2023-03-13T00:14:04;99490.97;;;9.99;67.98
12360;BME280;6244;51.460;7.090;2023-03-13T00:19:01;99471.78;;;9.98;68.66
12360;BME280;6244;51.460;7.090;2023-03-13T00:23:57;99474.41;;;9.98;69.30
12360;BME280;6244;51.460;7.090;2023-03-13T00:28:55;99462.59;;;9.93;70.53
12360;BME280;6244;51.460;7.090;2023-03-13T00:33:54;99449.34;;;9.82;71.88
12360;BME280;6244;51.460;7.090;2023-03-13T00:38:51;99443.13;;;9.57;72.98
12360;BME280;6244;51.460;7.090;2023-03-13T00:43:48;99433.38;;;9.47;74.18
12360;BME280;6244;51.460;7.090;2023-03-13T00:48:47;99418.69;;;9.44;74.40
12360;BME280;6244;51.460;7.090;2023-03-13T00:53:43;99416.50;;;9.51;74.18
12360;BME280;6244;51.460;7.090;2023-03-13T00:58:41;99408.94;;;9.33;74.79
12360;BME280;6244;51.460;7.090;2023-03-13T01:03:39;99390.72;;;9.05;77.55
12360;BME280;6244;51.460;7.090;2023-03-13T01:08:38;99382.38;;;8.86;79.60
12360;BME280;6244;51.460;7.090;2023-03-13T01:13:35;99353.94;;;8.81;80.04
12360;BME280;6244;51.460;7.090;2023-03-13T01:18:33;99344.94;;;8.85;80.22
12360;BME280;6244;51.460;7.090;2023-03-13T01:23:30;99357.75;;;8.75;81.73
12360;BME280;6244;51.460;7.090;2023-03-13T01:28:28;99344.69;;;8.75;82.68
12360;BME280;6244;51.460;7.090;2023-03-13T01:33:25;99331.97;;;8.57;85.30
12360;BME280;6244;51.460;7.090;2023-03-13T01:38:21;99327.22;;;8.49;87.11
12360;BME280;6244;51.460;7.090;2023-03-13T01:43:20;99305.00;;;8.42;87.09
12360;BME280;6244;51.460;7.090;2023-03-13T01:48:19;99301.31;;;8.59;87.38
12360;BME280;6244;51.460;7.090;2023-03-13T01:53:16;99285.38;;;8.49;87.75
12360;BME280;6244;51.460;7.090;2023-03-13T01:58:12;99267.09;;;8.49;88.14
12360;BME280;6244;51.460;7.090;2023-03-13T02:03:12;99258.25;;;8.37;89.20
12360;BME280;6244;51.460;7.090;2023-03-13T02:08:15;99236.88;;;8.45;89.01
12360;BME280;6244;51.460;7.090;2023-03-13T02:13:14;99227.41;;;8.42;89.53
12360;BME280;6244;51.460;7.090;2023-03-13T02:18:12;99220.88;;;8.49;89.62
12360;BME280;6244;51.460;7.090;2023-03-13T02:23:14;99203.72;;;8.45;90.25
12360;BME280;6244;51.460;7.090;2023-03-13T02:28:18;99185.00;;;8.51;90.55
12360;BME280;6244;51.460;7.090;2023-03-13T02:33:17;99174.53;;;8.51;90.89
12360;BME280;6244;51.460;7.090;2023-03-13T02:38:18;99171.66;;;8.56;91.03
12360;BME280;6244;51.460;7.090;2023-03-13T02:43:22;99157.53;;;8.59;90.80
12360;BME280;6244;51.460;7.090;2023-03-13T02:48:30;99145.50;;;8.69;91.01
12360;BME280;6244;51.460;7.090;2023-03-13T02:53:27;99139.63;;;8.65;90.66
12360;BME280;6244;51.460;7.090;2023-03-13T02:58:26;99130.84;;;8.66;90.95
12360;BME280;6244;51.460;7.090;2023-03-13T03:03:22;99129.91;;;8.67;91.45
12360;BME280;6244;51.460;7.090;2023-03-13T03:08:19;99121.44;;;8.76;91.07
12360;BME280;6244;51.460;7.090;2023-03-13T03:13:15;99119.44;;;8.80;91.41
12360;BME280;6244;51.460;7.090;2023-03-13T03:18:13;99093.59;;;8.88;91.37
12360;BME280;6244;51.460;7.090;2023-03-13T03:23:09;99092.06;;;8.86;91.37
12360;BME280;6244;51.460;7.090;2023-03-13T03:28:06;99093.00;;;8.85;91.67
12360;BME280;6244;51.460;7.090;2023-03-13T03:33:03;99091.00;;;8.88;92.16
12360;BME280;6244;51.460;7.090;2023-03-13T03:38:01;99090.66;;;8.93;92.28
12360;BME280;6244;51.460;7.090;2023-03-13T03:42:57;99084.56;;;9.05;92.07
12360;BME280;6244;51.460;7.090;2023-03-13T03:47:54;99090.00;;;9.15;91.54
12360;BME280;6244;51.460;7.090;2023-03-13T03:52:53;99076.50;;;9.21;91.46
12360;BME280;6244;51.460;7.090;2023-03-13T03:57:51;99083.53;;;9.20;91.32
12360;BME280;6244;51.460;7.090;2023-03-13T04:02:48;99090.44;;;9.21;91.52
12360;BME280;6244;51.460;7.090;2023-03-13T04:07:44;99094.00;;;9.20;91.60
12360;BME280;6244;51.460;7.090;2023-03-13T04:12:41;99079.78;;;9.11;92.22
12360;BME280;6244;51.460;7.090;2023-03-13T04:17:39;99070.13;;;9.12;92.46
12360;BME280;6244;51.460;7.090;2023-03-13T04:22:35;99074.31;;;9.15;92.53
12360;BME280;6244;51.460;7.090;2023-03-13T04:27:32;99058.50;;;9.16;92.60
12360;BME280;6244;51.460;7.090;2023-03-13T04:32:28;99039.75;;;9.22;92.60
12360;BME280;6244;51.460;7.090;2023-03-13T04:37:26;99043.22;;;9.23;92.80
12360;BME280;6244;51.460;7.090;2023-03-13T04:42:23;99060.88;;;9.32;92.63
12360;BME280;6244;51.460;7.090;2023-03-13T04:47:20;99046.97;;;9.31;92.13
12360;BME280;6244;51.460;7.090;2023-03-13T04:52:16;99031.03;;;9.34;92.88
12360;BME280;6244;51.460;7.090;2023-03-13T04:57:14;99047.63;;;9.46;92.63
12360;BME280;6244;51.460;7.090;2023-03-13T05:02:11;99022.25;;;9.59;92.09
12360;BME280;6244;51.460;7.090;2023-03-13T05:07:07;99018.84;;;9.70;92.02
12360;BME280;6244;51.460;7.090;2023-03-13T05:12:04;99022.28;;;9.70;91.56
12360;BME280;6244;51.460;7.090;2023-03-13T05:17:02;99009.25;;;9.82;91.67
12360;BME280;6244;51.460;7.090;2023-03-13T05:21:58;99005.44;;;9.86;91.61
12360;BME280;6244;51.460;7.090;2023-03-13T05:26:55;99003.41;;;9.89;91.34
12360;BME280;6244;51.460;7.090;2023-03-13T05:31:51;99008.34;;;9.94;91.66
12360;BME280;6244;51.460;7.090;2023-03-13T05:36:49;99013.25;;;10.10;91.72
12360;BME280;6244;51.460;7.090;2023-03-13T05:41:46;99017.13;;;10.28;91.31
12360;BME280;6244;51.460;7.090;2023-03-13T05:46:42;99019.63;;;10.41;91.49
12360;BME280;6244;51.460;7.090;2023-03-13T05:51:39;98999.75;;;10.49;91.20
12360;BME280;6244;51.460;7.090;2023-03-13T05:56:36;99006.69;;;10.62;91.06
12360;BME280;6244;51.460;7.090;2023-03-13T06:01:33;99000.34;;;10.75;90.46
12360;BME280;6244;51.460;7.090;2023-03-13T06:06:29;98989.13;;;10.96;89.51
12360;BME280;6244;51.460;7.090;2023-03-13T06:11:26;98959.88;;;11.00;88.54
12360;BME280;6244;51.460;7.090;2023-03-13T06:16:24;98976.69;;;11.09;87.56
12360;BME280;6244;51.460;7.090;2023-03-13T06:21:20;98981.56;;;11.13;87.27
12360;BME280;6244;51.460;7.090;2023-03-13T06:26:17;98974.63;;;11.24;86.23
12360;BME280;6244;51.460;7.090;2023-03-13T06:31:13;98963.66;;;11.30;85.99
12360;BME280;6244;51.460;7.090;2023-03-13T06:36:11;98964.94;;;11.35;85.29
12360;BME280;6244;51.460;7.090;2023-03-13T06:41:08;98980.41;;;11.50;84.38
12360;BME280;6244;51.460;7.090;2023-03-13T06:46:05;98976.19;;;11.58;83.83
12360;BME280;6244;51.460;7.090;2023-03-13T06:51:01;98984.38;;;11.65;83.77
12360;BME280;6244;51.460;7.090;2023-03-13T06:56:00;98993.59;;;11.70;82.77
12360;BME280;6244;51.460;7.090;2023-03-13T07:00:57;98987.69;;;11.78;82.55
12360;BME280;6244;51.460;7.090;2023-03-13T07:05:57;98992.88;;;11.80;81.94
12360;BME280;6244;51.460;7.090;2023-03-13T07:10:57;98979.41;;;11.94;80.47
12360;BME280;6244;51.460;7.090;2023-03-13T07:15:58;98975.88;;;12.04;79.96
12360;BME280;6244;51.460;7.090;2023-03-13T07:20:56;98994.03;;;12.08;79.48
12360;BME280;6244;51.460;7.090;2023-03-13T07:25:53;98980.22;;;12.15;78.91
12360;BME280;6244;51.460;7.090;2023-03-13T07:30:50;98962.34;;;12.30;78.03
12360;BME280;6244;51.460;7.090;2023-03-13T07:35:50;98970.66;;;12.35;77.30
12360;BME280;6244;51.460;7.090;2023-03-13T07:40:48;98953.00;;;12.47;76.70
12360;BME280;6244;51.460;7.090;2023-03-13T07:45:53;98959.66;;;12.51;76.13
12360;BME280;6244;51.460;7.090;2023-03-13T07:50:53;98940.72;;;12.57;75.27
12360;BME280;6244;51.460;7.090;2023-03-13T07:55:57;98935.44;;;12.57;75.06
12360;BME280;6244;51.460;7.090;2023-03-13T08:00:54;98955.81;;;12.64;74.12
12360;BME280;6244;51.460;7.090;2023-03-13T08:05:59;98956.41;;;12.68;73.78
12360;BME280;6244;51.460;7.090;2023-03-13T08:10:59;98946.72;;;12.69;73.56
12360;BME280;6244;51.460;7.090;2023-03-13T08:16:04;98939.66;;;12.69;73.22
12360;BME280;6244;51.460;7.090;2023-03-13T08:21:04;98954.47;;;12.70;73.08
12360;BME280;6244;51.460;7.090;2023-03-13T08:26:02;98941.03;;;12.73;73.27
12360;BME280;6244;51.460;7.090;2023-03-13T08:31:06;98940.66;;;12.78;72.41
12360;BME280;6244;51.460;7.090;2023-03-13T08:36:13;98949.38;;;12.88;71.76
12360;BME280;6244;51.460;7.090;2023-03-13T08:41:12;98960.50;;;12.91;71.35
12360;BME280;6244;51.460;7.090;2023-03-13T08:46:09;98964.53;;;12.96;71.58
12360;BME280;6244;51.460;7.090;2023-03-13T08:51:07;98966.75;;;13.00;71.32
12360;BME280;6244;51.460;7.090;2023-03-13T08:56:07;98960.13;;;13.06;71.19
12360;BME280;6244;51.460;7.090;2023-03-13T09:01:05;98962.63;;;13.07;71.54
12360;BME280;6244;51.460;7.090;2023-03-13T09:06:02;98952.91;;;13.08;71.83
12360;BME280;6244;51.460;7.090;2023-03-13T09:11:00;98949.34;;;13.18;71.63
12360;BME280;6244;51.460;7.090;2023-03-13T09:16:00;98943.00;;;13.31;71.08
12360;BME280;6244;51.460;7.090;2023-03-13T09:20:57;98942.03;;;13.80;69.65
12360;BME280;6244;51.460;7.090;2023-03-13T09:25:55;98917.31;;;13.91;69.18
12360;BME280;6244;51.460;7.090;2023-03-13T09:30:52;98932.72;;;13.76;70.91
12360;BME280;6244;51.460;7.090;2023-03-13T09:35:50;98930.63;;;13.89;69.85
12360;BME280;6244;51.460;7.090;2023-03-13T09:40:48;98929.00;;;13.59;71.79
12360;BME280;6244;51.460;7.090;2023-03-13T09:45:48;98927.31;;;13.39;73.63
12360;BME280;6244;51.460;7.090;2023-03-13T09:50:54;98921.78;;;13.32;74.50
12360;BME280;6244;51.460;7.090;2023-03-13T09:55:51;98920.28;;;12.89;79.80
12360;BME280;6244;51.460;7.090;2023-03-13T10:00:53;98897.84;;;12.85;79.59
12360;BME280;6244;51.460;7.090;2023-03-13T10:05:54;98901.44;;;12.84;79.52
12360;BME280;6244;51.460;7.090;2023-03-13T10:10:54;98900.34;;;12.87;77.77
12360;BME280;6244;51.460;7.090;2023-03-13T10:15:54;98901.63;;;13.02;77.26
12360;BME280;6244;51.460;7.090;2023-03-13T10:20:56;98881.88;;;14.03;72.96
12360;BME280;6244;51.460;7.090;2023-03-13T10:25:53;98861.53;;;14.60;69.19
12360;BME280;6244;51.460;7.090;2023-03-13T10:30:53;98853.63;;;15.93;63.61
12360;BME280;6244;51.460;7.090;2023-03-13T10:36:06;98852.22;;;15.19;65.98
12360;BME280;6244;51.460;7.090;2023-03-13T10:41:08;98841.56;;;14.75;67.62
12360;BME280;6244;51.460;7.090;2023-03-13T10:46:23;98851.22;;;14.84;66.65
12360;BME280;6244;51.460;7.090;2023-03-13T10:51:23;98869.53;;;15.13;65.11
12360;BME280;6244;51.460;7.090;2023-03-13T10:56:24;98808.75;;;15.13;65.21
12360;BME280;6244;51.460;7.090;2023-03-13T11:01:25;98834.69;;;15.00;65.72
12360;BME280;6244;51.460;7.090;2023-03-13T11:06:27;98814.56;;;15.17;64.29
12360;BME280;6244;51.460;7.090;2023-03-13T11:11:24;98802.19;;;15.17;63.56
12360;BME280;6244;51.460;7.090;2023-03-13T11:16:27;98815.59;;;15.42;63.15
12360;BME280;6244;51.460;7.090;2023-03-13T11:21:33;98797.19;;;15.32;63.70
12360;BME280;6244;51.460;7.090;2023-03-13T11:26:35;98835.31;;;15.30;63.36
12360;BME280;6244;51.460;7.090;2023-03-13T11:31:36;98797.25;;;15.40;62.65
12360;BME280;6244;51.460;7.090;2023-03-13T11:36:42;98800.41;;;15.44;62.26
12360;BME280;6244;51.460;7.090;2023-03-13T11:41:51;98760.59;;;15.45;61.16
12360;BME280;6244;51.460;7.090;2023-03-13T11:46:59;98774.41;;;15.83;59.72
12360;BME280;6244;51.460;7.090;2023-03-13T11:52:08;98758.09;;;16.46;57.65
12360;BME280;6244;51.460;7.090;2023-03-13T11:57:11;98755.22;;;16.23;56.23
12360;BME280;6244;51.460;7.090;2023-03-13T12:02:17;98746.25;;;16.99;54.82
12360;BME280;6244;51.460;7.090;2023-03-13T12:07:20;98722.94;;;16.78;55.35
12360;BME280;6244;51.460;7.090;2023-03-13T12:12:30;98738.88;;;16.28;56.32
12360;BME280;6244;51.460;7.090;2023-03-13T12:17:31;98718.69;;;15.84;57.57
12360;BME280;6244;51.460;7.090;2023-03-13T12:22:35;98692.22;;;15.76;58.10
12360;BME280;6244;51.460;7.090;2023-03-13T12:27:35;98713.38;;;15.76;58.65
12360;BME280;6244;51.460;7.090;2023-03-13T12:32:36;98722.59;;;15.64;58.83
12360;BME280;6244;51.460;7.090;2023-03-13T12:37:40;98690.03;;;15.72;58.43
12360;BME280;6244;51.460;7.090;2023-03-13T12:42:44;98684.31;;;15.76;57.00
12360;BME280;6244;51.460;7.090;2023-03-13T12:48:00;98682.44;;;15.69;56.99
12360;BME280;6244;51.460;7.090;2023-03-13T12:53:25;98684.03;;;15.62;57.42
12360;BME280;6244;51.460;7.090;2023-03-13T12:58:43;98686.84;;;15.60;57.94
12360;BME280;6244;51.460;7.090;2023-03-13T13:03:49;98660.53;;;15.58;56.47
12360;BME280;6244;51.460;7.090;2023-03-13T13:09:07;98658.13;;;15.65;57.84
12360;BME280;6244;51.460;7.090;2023-03-13T13:14:52;98642.97;;;15.75;57.02
12360;BME280;6244;51.460;7.090;2023-03-13T13:19:54;98635.09;;;15.92;56.03
12360;BME280;6244;51.460;7.090;2023-03-13T13:24:53;98617.41;;;16.00;55.89
12360;BME280;6244;51.460;7.090;2023-03-13T13:29:54;98615.25;;;16.12;55.99
12360;BME280;6244;51.460;7.090;2023-03-13T13:34:55;98604.53;;;16.22;55.06
12360;BME280;6244;51.460;7.090;2023-03-13T13:40:18;98612.13;;;16.00;55.64
12360;BME280;6244;51.460;7.090;2023-03-13T13:45:29;98612.97;;;16.33;55.34
12360;BME280;6244;51.460;7.090;2023-03-13T13:50:27;98615.13;;;16.30;54.59
12360;BME280;6244;51.460;7.090;2023-03-13T13:55:41;98603.53;;;16.14;55.55
12360;BME280;6244;51.460;7.090;2023-03-13T14:00:40;98604.81;;;15.86;57.04
12360;BME280;6244;51.460;7.090;2023-03-13T14:05:38;98577.03;;;15.82;57.84
12360;BME280;6244;51.460;7.090;2023-03-13T14:10:39;98584.34;;;15.88;57.54
12360;BME280;6244;51.460;7.090;2023-03-13T14:15:36;98580.03;;;15.95;57.13
12360;BME280;6244;51.460;7.090;2023-03-13T14:20:33;98605.09;;;15.75;56.83
12360;BME280;6244;51.460;7.090;2023-03-13T14:25:44;98567.94;;;15.76;57.52
12360;BME280;6244;51.460;7.090;2023-03-13T14:30:42;98559.00;;;15.69;57.73
12360;BME280;6244;51.460;7.090;2023-03-13T14:35:39;98552.38;;;15.65;58.63
12360;BME280;6244;51.460;7.090;2023-03-13T14:40:37;98544.44;;;15.65;59.39
12360;BME280;6244;51.460;7.090;2023-03-13T14:45:35;98532.06;;;15.74;58.79
12360;BME280;6244;51.460;7.090;2023-03-13T14:50:33;98551.72;;;15.63;57.87
12360;BME280;6244;51.460;7.090;2023-03-13T14:55:33;98539.09;;;15.57;58.79
12360;BME280;6244;51.460;7.090;2023-03-13T15:00:37;98517.25;;;15.47;59.38
12360;BME280;6244;51.460;7.090;2023-03-13T15:05:34;98500.94;;;15.01;66.31
12360;BME280;6244;51.460;7.090;2023-03-13T15:10:33;98501.00;;;14.49;72.95
12360;BME280;6244;51.460;7.090;2023-03-13T15:15:31;98507.31;;;14.13;71.40
12360;BME280;6244;51.460;7.090;2023-03-13T15:20:28;98479.84;;;14.23;69.29
12360;BME280;6244;51.460;7.090;2023-03-13T15:25:25;98470.53;;;14.37;68.73
12360;BME280;6244;51.460;7.090;2023-03-13T15:30:21;98472.66;;;14.51;65.80
12360;BME280;6244;51.460;7.090;2023-03-13T15:35:25;98463.22;;;14.83;64.39
12360;BME280;6244;51.460;7.090;2023-03-13T15:40:24;98457.78;;;15.35;63.07
12360;BME280;6244;51.460;7.090;2023-03-13T15:45:21;98442.63;;;15.61;59.52
12360;BME280;6244;51.460;7.090;2023-03-13T15:50:19;98433.53;;;15.55;58.17
12360;BME280;6244;51.460;7.090;2023-03-13T15:55:16;98417.88;;;15.70;58.30
12360;BME280;6244;51.460;7.090;2023-03-13T16:00:18;98410.59;;;15.72;57.28
12360;BME280;6244;51.460;7.090;2023-03-13T16:05:15;98391.91;;;15.74;56.53
12360;BME280;6244;51.460;7.090;2023-03-13T16:10:15;98371.75;;;15.81;55.66
12360;BME280;6244;51.460;7.090;2023-03-13T16:15:11;98372.91;;;15.78;54.94
12360;BME280;6244;51.460;7.090;2023-03-13T16:20:14;98370.44;;;15.61;56.56
12360;BME280;6244;51.460;7.090;2023-03-13T16:25:12;98363.97;;;15.47;56.12
12360;BME280;6244;51.460;7.090;2023-03-13T16:30:15;98386.44;;;15.43;56.19
12360;BME280;6244;51.460;7.090;2023-03-13T16:35:14;98363.16;;;15.38;55.59
12360;BME280;6244;51.460;7.090;2023-03-13T16:40:14;98353.03;;;15.09;54.92
12360;BME280;6244;51.460;7.090;2023-03-13T16:45:12;98348.91;;;14.90;56.05
12360;BME280;6244;51.460;7.090;2023-03-13T16:50:16;98364.38;;;14.77;56.74
12360;BME280;6244;51.460;7.090;2023-03-13T16:55:14;98356.94;;;14.73;56.60
12360;BME280;6244;51.460;7.090;2023-03-13T17:00:13;98351.94;;;14.61;56.51
12360;BME280;6244;51.460;7.090;2023-03-13T17:05:12;98351.41;;;14.50;56.88
12360;BME280;6244;51.460;7.090;2023-03-13T17:10:20;98361.25;;;14.39;56.63
12360;BME280;6244;51.460;7.090;2023-03-13T17:15:18;98372.25;;;14.27;57.24
12360;BME280;6244;51.460;7.090;2023-03-13T17:20:15;98360.31;;;14.23;56.62
12360;BME280;6244;51.460;7.090;2023-03-13T17:25:12;98353.56;;;14.20;56.85
12360;BME280;6244;51.460;7.090;2023-03-13T17:30:23;98358.69;;;14.22;57.52
12360;BME280;6244;51.460;7.090;2023-03-13T17:35:20;98355.31;;;14.11;57.32
12360;BME280;6244;51.460;7.090;2023-03-13T17:40:18;98350.03;;;14.11;57.63
12360;BME280;6244;51.460;7.090;2023-03-13T17:45:16;98354.50;;;14.11;57.42
12360;BME280;6244;51.460;7.090;2023-03-13T17:50:17;98343.94;;;14.03;57.77
12360;BME280;6244;51.460;7.090;2023-03-13T17:55:15;98345.09;;;14.08;58.39
12360;BME280;6244;51.460;7.090;2023-03-13T18:00:18;98335.63;;;13.98;60.22
12360;BME280;6244;51.460;7.090;2023-03-13T18:05:17;98330.19;;;13.91;61.08
12360;BME280;6244;51.460;7.090;2023-03-13T18:10:19;98324.19;;;13.81;61.62
12360;BME280;6244;51.460;7.090;2023-03-13T18:15:16;98315.91;;;13.76;62.03
12360;BME280;6244;51.460;7.090;2023-03-13T18:20:15;98295.44;;;13.70;62.52
12360;BME280;6244;51.460;7.090;2023-03-13T18:25:13;98314.38;;;13.65;62.17
12360;BME280;6244;51.460;7.090;2023-03-13T18:30:14;98317.94;;;13.56;62.36
12360;BME280;6244;51.460;7.090;2023-03-13T18:35:11;98314.47;;;13.56;62.38
12360;BME280;6244;51.460;7.090;2023-03-13T18:40:16;98314.91;;;13.51;62.21
12360;BME280;6244;51.460;7.090;2023-03-13T18:45:14;98312.59;;;13.48;62.09
12360;BME280;6244;51.460;7.090;2023-03-13T18:50:17;98316.69;;;13.42;62.19
12360;BME280;6244;51.460;7.090;2023-03-13T18:55:15;98326.41;;;13.42;62.02
12360;BME280;6244;51.460;7.090;2023-03-13T19:00:15;98326.41;;;13.42;61.87
12360;BME280;6244;51.460;7.090;2023-03-13T19:05:12;98324.31;;;13.28;62.31
12360;BME280;6244;51.460;7.090;2023-03-13T19:10:22;98322.03;;;13.33;62.18
12360;BME280;6244;51.460;7.090;2023-03-13T19:15:21;98316.41;;;13.28;62.31
12360;BME280;6244;51.460;7.090;2023-03-13T19:20:20;98313.38;;;13.22;62.46
12360;BME280;6244;51.460;7.090;2023-03-13T19:25:17;98303.16;;;13.19;62.79
12360;BME280;6244;51.460;7.090;2023-03-13T19:30:19;98295.38;;;13.18;62.44
12360;BME280;6244;51.460;7.090;2023-03-13T19:35:17;98302.63;;;13.16;62.60
12360;BME280;6244;51.460;7.090;2023-03-13T19:40:18;98287.09;;;13.13;62.90
12360;BME280;6244;51.460;7.090;2023-03-13T19:45:16;98275.84;;;13.03;63.39
12360;BME280;6244;51.460;7.090;2023-03-13T19:50:19;98268.09;;;13.01;63.79
12360;BME280;6244;51.460;7.090;2023-03-13T19:55:16;98244.03;;;12.96;64.14
12360;BME280;6244;51.460;7.090;2023-03-13T20:00:18;98243.66;;;12.91;64.56
12360;BME280;6244;51.460;7.090;2023-03-13T20:05:16;98225.16;;;12.83;64.90
12360;BME280;6244;51.460;7.090;2023-03-13T20:10:13;98223.81;;;12.79;65.11
12360;BME280;6244;51.460;7.090;2023-03-13T20:15:10;98227.56;;;12.76;65.53
12360;BME280;6244;51.460;7.090;2023-03-13T20:20:09;98239.22;;;12.74;65.43
12360;BME280;6244;51.460;7.090;2023-03-13T20:25:08;98247.91;;;12.66;65.63
12360;BME280;6244;51.460;7.090;2023-03-13T20:30:06;98254.25;;;12.63;65.60
12360;BME280;6244;51.460;7.090;2023-03-13T20:35:03;98243.84;;;12.54;65.90
12360;BME280;6244;51.460;7.090;2023-03-13T20:40:07;98243.59;;;12.47;65.84
12360;BME280;6244;51.460;7.090;2023-03-13T20:45:05;98246.66;;;12.43;66.10
12360;BME280;6244;51.460;7.090;2023-03-13T20:50:03;98250.28;;;12.42;66.27
12360;BME280;6244;51.460;7.090;2023-03-13T20:54:59;98230.66;;;12.36;66.42
12360;BME280;6244;51.460;7.090;2023-03-13T20:59:57;98223.53;;;12.28;66.37
12360;BME280;6244;51.460;7.090;2023-03-13T21:04:54;98242.34;;;12.24;66.50
12360;BME280;6244;51.460;7.090;2023-03-13T21:09:50;98240.03;;;12.21;66.58
12360;BME280;6244;51.460;7.090;2023-03-13T21:14:47;98243.47;;;12.21;65.86
12360;BME280;6244;51.460;7.090;2023-03-13T21:19:48;98233.94;;;12.20;66.26
12360;BME280;6244;51.460;7.090;2023-03-13T21:24:46;98234.09;;;12.19;66.20
12360;BME280;6244;51.460;7.090;2023-03-13T21:29:43;98223.63;;;12.27;65.81
12360;BME280;6244;51.460;7.090;2023-03-13T21:34:41;98213.06;;;12.19;66.08
12360;BME280;6244;51.460;7.090;2023-03-13T21:39:39;98216.09;;;12.14;66.22
12360;BME280;6244;51.460;7.090;2023-03-13T21:44:36;98189.81;;;12.14;66.18
12360;BME280;6244;51.460;7.090;2023-03-13T21:49:33;98178.13;;;12.09;66.20
12360;BME280;6244;51.460;7.090;2023-03-13T21:54:30;98179.16;;;11.98;66.42
12360;BME280;6244;51.460;7.090;2023-03-13T21:59:28;98159.41;;;11.94;66.68
12360;BME280;6244;51.460;7.090;2023-03-13T22:04:26;98157.34;;;11.88;66.65
12360;BME280;6244;51.460;7.090;2023-03-13T22:09:22;98176.72;;;11.87;66.65
12360;BME280;6244;51.460;7.090;2023-03-13T22:14:19;98202.63;;;11.82;66.70
12360;BME280;6244;51.460;7.090;2023-03-13T22:19:17;98211.84;;;11.76;67.05
12360;BME280;6244;51.460;7.090;2023-03-13T22:24:13;98230.69;;;11.71;67.06
12360;BME280;6244;51.460;7.090;2023-03-13T22:29:10;98226.88;;;11.66;67.08
12360;BME280;6244;51.460;7.090;2023-03-13T22:34:06;98244.69;;;11.62;67.14
12360;BME280;6244;51.460;7.090;2023-03-13T22:39:04;98259.31;;;11.65;67.00
12360;BME280;6244;51.460;7.090;2023-03-13T22:44:01;98254.78;;;11.67;67.04
12360;BME280;6244;51.460;7.090;2023-03-13T22:48:57;98234.63;;;11.58;67.11
12360;BME280;6244;51.460;7.090;2023-03-13T22:53:53;98233.78;;;11.57;67.17
12360;BME280;6244;51.460;7.090;2023-03-13T22:58:51;98235.75;;;11.45;67.54
12360;BME280;6244;51.460;7.090;2023-03-13T23:03:48;98227.34;;;11.42;67.44
12360;BME280;6244;51.460;7.090;2023-03-13T23:08:44;98206.63;;;11.39;67.67
12360;BME280;6244;51.460;7.090;2023-03-13T23:13:41;98190.09;;;11.29;68.24
12360;BME280;6244;51.460;7.090;2023-03-13T23:18:39;98171.44;;;11.22;68.29
12360;BME280;6244;51.460;7.090;2023-03-13T23:23:36;98165.81;;;11.17;68.41
12360;BME280;6244;51.460;7.090;2023-03-13T23:28:33;98184.59;;;11.12;68.30
12360;BME280;6244;51.460;7.090;2023-03-13T23:33:29;98220.66;;;11.10;68.56
12360;BME280;6244;51.460;7.090;2023-03-13T23:38:27;98227.56;;;11.11;68.09
12360;BME280;6244;51.460;7.090;2023-03-13T23:43:23;98185.72;;;11.10;68.11
12360;BME280;6244;51.460;7.090;2023-03-13T23:48:20;98163.59;;;11.12;67.81
12360;BME280;6244;51.460;7.090;2023-03-13T23:53:16;98182.94;;;11.11;67.43
12360;BME280;6244;51.460;7.090;2023-03-13T23:58:14;98162.53;;;11.05;67.44
